sensor_id;sensor_type;location;lat;lon;timestamp;temperature;humidity
17172;DHT22;8701;50.150;8.756;2023-05-10T00:00:43;16.00;99.90
17172;DHT22;8701;50.150;8.756;2023-05-10T00:04:45;16.00;99.90
17172;DHT22;8701;50.150;8.756;2023-05-10T00:08:47;15.80;99.90
17172;DHT22;8701;50.150;8.756;2023-05-10T00:12:51;15.50;99.90
17172;DHT22;8701;50.150;8.756;2023-05-10T00:16:53;15.40;99.90
17172;DHT22;8701;50.150;8.756;2023-05-10T00:20:55;15.40;99.90
17172;DHT22;8701;50.150;8.756;2023-05-10T00:24:58;15.30;99.90
17172;DHT22;8701;50.150;8.756;2023-05-10T00:29:01;15.40;99.90
17172;DHT22;8701;50.150;8.756;2023-05-10T00:33:03;15.30;99.90
17172;DHT22;8701;50.150;8.756;2023-05-10T00:37:06;15.30;99.90
17172;DHT22;8701;50.150;8.756;2023-05-10T00:41:08;15.30;99.90
17172;DHT22;8701;50.150;8.756;2023-05-10T00:45:13;15.40;99.90
17172;DHT22;8701;50.150;8.756;2023-05-10T00:49:15;15.30;99.90
17172;DHT22;8701;50.150;8.756;2023-05-10T00:53:18;15.30;99.90
17172;DHT22;8701;50.150;8.756;2023-05-10T00:57:21;15.20;99.90
17172;DHT22;8701;50.150;8.756;2023-05-10T01:01:25;15.20;99.90
17172;DHT22;8701;50.150;8.756;2023-05-10T01:05:27;15.20;99.90
17172;DHT22;8701;50.150;8.756;2023-05-10T01:09:29;15.10;99.90
17172;DHT22;8701;50.150;8.756;2023-05-10T01:13:34;15.10;99.90
17172;DHT22;8701;50.150;8.756;2023-05-10T01:17:39;15.00;99.90
17172;DHT22;8701;50.150;8.756;2023-05-10T01:21:48;15.00;99.90
17172;DHT22;8701;50.150;8.756;2023-05-10T01:31:05;15.00;99.90
17172;DHT22;8701;50.150;8.756;2023-05-10T01:35:17;15.00;99.90
17172;DHT22;8701;50.150;8.756;2023-05-10T01:39:32;15.00;99.90
17172;DHT22;8701;50.150;8.756;2023-05-10T01:43:41;15.00;99.90
17172;DHT22;8701;50.150;8.756;2023-05-10T01:47:46;14.90;99.90
17172;DHT22;8701;50.150;8.756;2023-05-10T01:51:54;14.90;99.90
17172;DHT22;8701;50.150;8.756;2023-05-10T01:56:00;14.90;99.90
17172;DHT22;8701;50.150;8.756;2023-05-10T02:00:07;14.80;99.90
17172;DHT22;8701;50.150;8.756;2023-05-10T02:04:17;14.80;99.90
17172;DHT22;8701;50.150;8.756;2023-05-10T02:08:24;14.80;99.90
17172;DHT22;8701;50.150;8.756;2023-05-10T02:12:27;14.80;99.90
17172;DHT22;8701;50.150;8.756;2023-05-10T02:16:30;14.80;99.90
17172;DHT22;8701;50.150;8.756;2023-05-10T02:20:35;14.80;99.90
17172;DHT22;8701;50.150;8.756;2023-05-10T02:24:39;14.70;99.90
17172;DHT22;8701;50.150;8.756;2023-05-10T02:28:42;14.70;99.90
17172;DHT22;8701;50.150;8.756;2023-05-10T02:32:45;14.70;99.90
17172;DHT22;8701;50.150;8.756;2023-05-10T02:36:49;14.70;99.90
17172;DHT22;8701;50.150;8.756;2023-05-10T02:40:54;14.70;99.90
17172;DHT22;8701;50.150;8.756;2023-05-10T02:45:00;14.70;99.90
17172;DHT22;8701;50.150;8.756;2023-05-10T02:49:03;14.70;99.90
17172;DHT22;8701;50.150;8.756;2023-05-10T02:53:09;14.70;99.90
17172;DHT22;8701;50.150;8.756;2023-05-10T02:57:16;14.70;99.90
17172;DHT22;8701;50.150;8.756;2023-05-10T03:01:20;14.70;99.90
17172;DHT22;8701;50.150;8.756;2023-05-10T03:05:22;14.70;99.90
17172;DHT22;8701;50.150;8.756;2023-05-10T03:09:24;14.70;99.90
17172;DHT22;8701;50.150;8.756;2023-05-10T03:13:34;14.70;99.90
17172;DHT22;8701;50.150;8.756;2023-05-10T03:17:46;14.70;99.90
17172;DHT22;8701;50.150;8.756;2023-05-10T03:21:52;14.70;99.90
17172;DHT22;8701;50.150;8.756;2023-05-10T03:25:55;14.70;99.90
17172;DHT22;8701;50.150;8.756;2023-05-10T03:30:01;14.80;99.90
17172;DHT22;8701;50.150;8.756;2023-05-10T03:34:07;14.60;99.90
17172;DHT22;8701;50.150;8.756;2023-05-10T03:38:09;14.60;99.90
17172;DHT22;8701;50.150;8.756;2023-05-10T03:42:11;14.60;99.90
17172;DHT22;8701;50.150;8.756;2023-05-10T03:46:15;14.50;99.90
17172;DHT22;8701;50.150;8.756;2023-05-10T03:50:17;14.50;99.90
17172;DHT22;8701;50.150;8.756;2023-05-10T03:54:20;14.50;99.90
17172;DHT22;8701;50.150;8.756;2023-05-10T03:58:22;14.50;99.90
17172;DHT22;8701;50.150;8.756;2023-05-10T04:02:26;14.50;99.90
17172;DHT22;8701;50.150;8.756;2023-05-10T04:06:28;14.60;99.90
17172;DHT22;8701;50.150;8.756;2023-05-10T04:10:31;14.60;99.90
17172;DHT22;8701;50.150;8.756;2023-05-10T04:14:33;14.60;99.90
17172;DHT22;8701;50.150;8.756;2023-05-10T04:18:36;14.60;99.90
17172;DHT22;8701;50.150;8.756;2023-05-10T04:22:40;14.60;99.90
17172;DHT22;8701;50.150;8.756;2023-05-10T04:26:42;14.60;99.90
17172;DHT22;8701;50.150;8.756;2023-05-10T04:30:45;14.60;99.90
17172;DHT22;8701;50.150;8.756;2023-05-10T04:34:49;14.70;99.90
17172;DHT22;8701;50.150;8.756;2023-05-10T04:38:52;14.70;99.90
17172;DHT22;8701;50.150;8.756;2023-05-10T04:42:54;14.70;99.90
17172;DHT22;8701;50.150;8.756;2023-05-10T04:46:56;14.70;99.90
17172;DHT22;8701;50.150;8.756;2023-05-10T04:51:00;14.70;99.90
17172;DHT22;8701;50.150;8.756;2023-05-10T04:55:02;14.70;99.90
17172;DHT22;8701;50.150;8.756;2023-05-10T04:59:04;14.70;99.90
17172;DHT22;8701;50.150;8.756;2023-05-10T05:03:07;14.80;99.90
17172;DHT22;8701;50.150;8.756;2023-05-10T05:07:10;14.70;99.90
17172;DHT22;8701;50.150;8.756;2023-05-10T05:11:12;14.80;99.90
17172;DHT22;8701;50.150;8.756;2023-05-10T05:15:15;14.80;99.90
17172;DHT22;8701;50.150;8.756;2023-05-10T05:19:17;14.90;99.90
17172;DHT22;8701;50.150;8.756;2023-05-10T05:23:21;14.90;99.90
17172;DHT22;8701;50.150;8.756;2023-05-10T05:27:25;14.90;99.90
17172;DHT22;8701;50.150;8.756;2023-05-10T05:31:28;15.00;99.90
17172;DHT22;8701;50.150;8.756;2023-05-10T05:35:31;15.00;99.90
17172;DHT22;8701;50.150;8.756;2023-05-10T05:39:35;15.00;99.90
17172;DHT22;8701;50.150;8.756;2023-05-10T05:43:38;14.90;99.90
17172;DHT22;8701;50.150;8.756;2023-05-10T05:47:40;14.90;99.90
17172;DHT22;8701;50.150;8.756;2023-05-10T05:51:42;14.90;99.90
17172;DHT22;8701;50.150;8.756;2023-05-10T05:55:52;14.90;99.90
17172;DHT22;8701;50.150;8.756;2023-05-10T05:59:55;14.90;99.90
17172;DHT22;8701;50.150;8.756;2023-05-10T06:03:58;15.00;99.90
17172;DHT22;8701;50.150;8.756;2023-05-10T06:08:00;14.90;99.90
17172;DHT22;8701;50.150;8.756;2023-05-10T06:12:04;14.90;99.90
17172;DHT22;8701;50.150;8.756;2023-05-10T06:16:06;15.00;99.90
17172;DHT22;8701;50.150;8.756;2023-05-10T06:20:09;15.00;99.90
17172;DHT22;8701;50.150;8.756;2023-05-10T06:24:12;15.10;99.90
17172;DHT22;8701;50.150;8.756;2023-05-10T06:28:15;15.10;99.90
17172;DHT22;8701;50.150;8.756;2023-05-10T06:32:18;15.10;99.90
17172;DHT22;8701;50.150;8.756;2023-05-10T06:36:20;15.20;99.90
17172;DHT22;8701;50.150;8.756;2023-05-10T06:40:23;15.20;99.90
17172;DHT22;8701;50.150;8.756;2023-05-10T06:44:26;15.20;99.90
17172;DHT22;8701;50.150;8.756;2023-05-10T06:48:29;15.20;99.90
17172;DHT22;8701;50.150;8.756;2023-05-10T06:52:31;15.40;99.90
17172;DHT22;8701;50.150;8.756;2023-05-10T06:56:33;15.30;99.90
17172;DHT22;8701;50.150;8.756;2023-05-10T07:00:37;15.40;99.90
17172;DHT22;8701;50.150;8.756;2023-05-10T07:04:41;15.50;99.90
17172;DHT22;8701;50.150;8.756;2023-05-10T07:08:43;15.40;99.90
17172;DHT22;8701;50.150;8.756;2023-05-10T07:12:45;15.40;99.90
17172;DHT22;8701;50.150;8.756;2023-05-10T07:16:49;15.40;99.90
17172;DHT22;8701;50.150;8.756;2023-05-10T07:20:51;15.50;99.90
17172;DHT22;8701;50.150;8.756;2023-05-10T07:24:54;15.40;99.90
17172;DHT22;8701;50.150;8.756;2023-05-10T07:28:56;15.30;99.90
17172;DHT22;8701;50.150;8.756;2023-05-10T07:33:00;15.40;99.90
17172;DHT22;8701;50.150;8.756;2023-05-10T07:37:02;15.40;99.90
17172;DHT22;8701;50.150;8.756;2023-05-10T07:41:04;15.50;99.90
17172;DHT22;8701;50.150;8.756;2023-05-10T07:45:07;15.60;99.90
17172;DHT22;8701;50.150;8.756;2023-05-10T07:49:11;15.50;99.90
17172;DHT22;8701;50.150;8.756;2023-05-10T07:53:13;15.50;99.90
17172;DHT22;8701;50.150;8.756;2023-05-10T07:57:15;15.60;99.90
17172;DHT22;8701;50.150;8.756;2023-05-10T08:01:19;15.60;99.90
17172;DHT22;8701;50.150;8.756;2023-05-10T08:05:23;15.50;99.90
17172;DHT22;8701;50.150;8.756;2023-05-10T08:09:25;15.40;99.90
17172;DHT22;8701;50.150;8.756;2023-05-10T08:17:41;15.90;99.90
17172;DHT22;8701;50.150;8.756;2023-05-10T08:21:45;16.20;99.90
17172;DHT22;8701;50.150;8.756;2023-05-10T08:25:47;16.50;99.90
17172;DHT22;8701;50.150;8.756;2023-05-10T11:27:47;17.20;99.90
17172;DHT22;8701;50.150;8.756;2023-05-10T11:31:50;17.20;99.90
17172;DHT22;8701;50.150;8.756;2023-05-10T11:35:53;17.30;99.90
17172;DHT22;8701;50.150;8.756;2023-05-10T11:39:55;17.50;99.90
17172;DHT22;8701;50.150;8.756;2023-05-10T11:43:59;17.80;99.90
17172;DHT22;8701;50.150;8.756;2023-05-10T11:48:02;18.20;99.90
17172;DHT22;8701;50.150;8.756;2023-05-10T11:52:05;18.30;99.90
17172;DHT22;8701;50.150;8.756;2023-05-10T11:56:09;18.50;99.90
17172;DHT22;8701;50.150;8.756;2023-05-10T12:00:14;18.40;99.90
17172;DHT22;8701;50.150;8.756;2023-05-10T12:04:17;18.60;99.90
17172;DHT22;8701;50.150;8.756;2023-05-10T12:08:21;18.50;99.90
17172;DHT22;8701;50.150;8.756;2023-05-10T12:12:23;18.30;99.90
17172;DHT22;8701;50.150;8.756;2023-05-10T12:16:29;17.80;99.90
17172;DHT22;8701;50.150;8.756;2023-05-10T12:20:31;17.60;99.90
17172;DHT22;8701;50.150;8.756;2023-05-10T12:24:34;17.40;99.90
17172;DHT22;8701;50.150;8.756;2023-05-10T12:28:37;17.30;99.90
17172;DHT22;8701;50.150;8.756;2023-05-10T12:32:41;17.30;99.90
17172;DHT22;8701;50.150;8.756;2023-05-10T12:36:44;17.50;99.90
17172;DHT22;8701;50.150;8.756;2023-05-10T12:40:46;17.60;99.90
17172;DHT22;8701;50.150;8.756;2023-05-10T12:44:48;18.00;99.90
17172;DHT22;8701;50.150;8.756;2023-05-10T12:48:51;18.30;99.90
17172;DHT22;8701;50.150;8.756;2023-05-10T12:52:55;18.60;99.90
17172;DHT22;8701;50.150;8.756;2023-05-10T12:56:58;18.90;99.90
17172;DHT22;8701;50.150;8.756;2023-05-10T13:01:00;19.00;99.90
17172;DHT22;8701;50.150;8.756;2023-05-10T13:05:04;19.00;99.90
17172;DHT22;8701;50.150;8.756;2023-05-10T13:09:07;19.10;99.90
17172;DHT22;8701;50.150;8.756;2023-05-10T13:13:09;19.20;99.90
17172;DHT22;8701;50.150;8.756;2023-05-10T13:17:11;19.20;99.90
17172;DHT22;8701;50.150;8.756;2023-05-10T13:21:15;19.20;99.90
17172;DHT22;8701;50.150;8.756;2023-05-10T13:25:17;19.10;99.90
17172;DHT22;8701;50.150;8.756;2023-05-10T13:29:19;19.00;99.90
17172;DHT22;8701;50.150;8.756;2023-05-10T13:33:23;19.00;99.90
17172;DHT22;8701;50.150;8.756;2023-05-10T13:37:27;19.00;99.90
17172;DHT22;8701;50.150;8.756;2023-05-10T13:41:29;19.10;99.90
17172;DHT22;8701;50.150;8.756;2023-05-10T13:45:31;19.30;99.90
17172;DHT22;8701;50.150;8.756;2023-05-10T13:49:33;19.40;99.90
17172;DHT22;8701;50.150;8.756;2023-05-10T13:53:37;19.60;99.90
17172;DHT22;8701;50.150;8.756;2023-05-10T13:57:39;19.70;99.90
17172;DHT22;8701;50.150;8.756;2023-05-10T14:01:42;19.70;99.90
17172;DHT22;8701;50.150;8.756;2023-05-10T14:05:44;19.70;99.90
17172;DHT22;8701;50.150;8.756;2023-05-10T14:09:49;19.80;99.90
17172;DHT22;8701;50.150;8.756;2023-05-10T14:13:51;20.00;99.90
17172;DHT22;8701;50.150;8.756;2023-05-10T14:17:53;20.10;99.90
17172;DHT22;8701;50.150;8.756;2023-05-10T14:21:56;20.00;99.90
17172;DHT22;8701;50.150;8.756;2023-05-10T14:25:59;20.10;99.90
17172;DHT22;8701;50.150;8.756;2023-05-10T14:30:03;20.20;99.90
17172;DHT22;8701;50.150;8.756;2023-05-10T14:34:05;20.20;99.90
17172;DHT22;8701;50.150;8.756;2023-05-10T14:38:07;20.20;99.90
17172;DHT22;8701;50.150;8.756;2023-05-10T14:42:11;20.00;99.90
17172;DHT22;8701;50.150;8.756;2023-05-10T14:46:14;19.80;99.90
17172;DHT22;8701;50.150;8.756;2023-05-10T14:50:16;19.80;99.90
17172;DHT22;8701;50.150;8.756;2023-05-10T14:54:19;19.80;99.90
17172;DHT22;8701;50.150;8.756;2023-05-10T14:58:23;19.70;99.90
17172;DHT22;8701;50.150;8.756;2023-05-10T15:02:25;19.70;99.90
17172;DHT22;8701;50.150;8.756;2023-05-10T15:06:30;19.70;99.90
17172;DHT22;8701;50.150;8.756;2023-05-10T15:10:33;19.70;99.90
17172;DHT22;8701;50.150;8.756;2023-05-10T15:14:37;19.80;99.90
17172;DHT22;8701;50.150;8.756;2023-05-10T15:18:39;19.80;99.90
17172;DHT22;8701;50.150;8.756;2023-05-10T15:22:41;19.70;99.90
17172;DHT22;8701;50.150;8.756;2023-05-10T15:26:43;19.70;99.90
17172;DHT22;8701;50.150;8.756;2023-05-10T15:30:47;19.40;99.90
17172;DHT22;8701;50.150;8.756;2023-05-10T15:34:49;19.30;99.90
17172;DHT22;8701;50.150;8.756;2023-05-10T15:38:53;19.20;99.90
17172;DHT22;8701;50.150;8.756;2023-05-10T15:42:55;19.10;99.90
17172;DHT22;8701;50.150;8.756;2023-05-10T15:46:58;19.20;99.90
17172;DHT22;8701;50.150;8.756;2023-05-10T15:51:00;19.20;99.90
17172;DHT22;8701;50.150;8.756;2023-05-10T15:55:03;19.10;99.90
17172;DHT22;8701;50.150;8.756;2023-05-10T15:59:12;19.10;99.90
17172;DHT22;8701;50.150;8.756;2023-05-10T16:03:16;19.00;99.90
17172;DHT22;8701;50.150;8.756;2023-05-10T16:07:18;18.90;99.90
17172;DHT22;8701;50.150;8.756;2023-05-10T16:11:20;18.90;99.90
17172;DHT22;8701;50.150;8.756;2023-05-10T16:15:22;18.80;99.90
17172;DHT22;8701;50.150;8.756;2023-05-10T16:19:26;18.70;99.90
17172;DHT22;8701;50.150;8.756;2023-05-10T16:23:28;18.80;99.90
17172;DHT22;8701;50.150;8.756;2023-05-10T16:27:30;18.70;99.90
17172;DHT22;8701;50.150;8.756;2023-05-10T16:31:33;18.70;99.90
17172;DHT22;8701;50.150;8.756;2023-05-10T16:35:38;18.60;99.90
17172;DHT22;8701;50.150;8.756;2023-05-10T16:39:40;18.60;99.90
17172;DHT22;8701;50.150;8.756;2023-05-10T16:43:42;18.50;99.90
17172;DHT22;8701;50.150;8.756;2023-05-10T16:47:44;18.50;99.90
17172;DHT22;8701;50.150;8.756;2023-05-10T16:51:48;18.40;99.90
17172;DHT22;8701;50.150;8.756;2023-05-10T16:55:50;18.40;99.90
17172;DHT22;8701;50.150;8.756;2023-05-10T16:59:52;18.30;99.90
17172;DHT22;8701;50.150;8.756;2023-05-10T17:03:54;18.30;99.90
17172;DHT22;8701;50.150;8.756;2023-05-10T17:07:58;18.20;99.90
17172;DHT22;8701;50.150;8.756;2023-05-10T17:12:00;18.10;99.90
17172;DHT22;8701;50.150;8.756;2023-05-10T17:16:04;18.00;99.90
17172;DHT22;8701;50.150;8.756;2023-05-10T17:20:08;17.90;99.90
17172;DHT22;8701;50.150;8.756;2023-05-10T17:24:12;17.80;99.90
17172;DHT22;8701;50.150;8.756;2023-05-10T17:28:14;17.80;99.90
17172;DHT22;8701;50.150;8.756;2023-05-10T17:32:16;17.70;99.90
17172;DHT22;8701;50.150;8.756;2023-05-10T17:36:19;17.70;99.90
17172;DHT22;8701;50.150;8.756;2023-05-10T17:40:22;17.60;99.90
17172;DHT22;8701;50.150;8.756;2023-05-10T17:44:24;17.60;99.90
17172;DHT22;8701;50.150;8.756;2023-05-10T17:48:27;17.60;99.90
17172;DHT22;8701;50.150;8.756;2023-05-10T17:52:29;17.60;99.90
17172;DHT22;8701;50.150;8.756;2023-05-10T17:56:32;17.60;99.90
17172;DHT22;8701;50.150;8.756;2023-05-10T18:00:35;17.60;99.90
17172;DHT22;8701;50.150;8.756;2023-05-10T18:04:38;17.60;99.90
17172;DHT22;8701;50.150;8.756;2023-05-10T18:08:40;17.60;99.90
17172;DHT22;8701;50.150;8.756;2023-05-10T18:12:44;17.60;99.90
17172;DHT22;8701;50.150;8.756;2023-05-10T18:16:46;17.60;99.90
17172;DHT22;8701;50.150;8.756;2023-05-10T18:20:49;17.50;99.90
17172;DHT22;8701;50.150;8.756;2023-05-10T18:24:56;17.50;99.90
17172;DHT22;8701;50.150;8.756;2023-05-10T18:28:59;17.50;99.90
17172;DHT22;8701;50.150;8.756;2023-05-10T18:33:02;17.40;99.90
17172;DHT22;8701;50.150;8.756;2023-05-10T18:37:04;17.40;99.90
17172;DHT22;8701;50.150;8.756;2023-05-10T18:41:07;17.30;99.90
17172;DHT22;8701;50.150;8.756;2023-05-10T18:45:13;17.20;99.90
17172;DHT22;8701;50.150;8.756;2023-05-10T18:49:15;17.20;99.90
17172;DHT22;8701;50.150;8.756;2023-05-10T18:53:18;17.10;99.90
17172;DHT22;8701;50.150;8.756;2023-05-10T18:57:20;17.00;99.90
17172;DHT22;8701;50.150;8.756;2023-05-10T19:01:23;17.00;99.90
17172;DHT22;8701;50.150;8.756;2023-05-10T19:05:26;16.90;99.90
17172;DHT22;8701;50.150;8.756;2023-05-10T19:09:30;16.80;99.90
17172;DHT22;8701;50.150;8.756;2023-05-10T19:13:32;16.60;99.90
17172;DHT22;8701;50.150;8.756;2023-05-10T19:17:36;16.50;99.90
17172;DHT22;8701;50.150;8.756;2023-05-10T19:21:38;16.40;99.90
17172;DHT22;8701;50.150;8.756;2023-05-10T19:25:41;16.30;99.90
17172;DHT22;8701;50.150;8.756;2023-05-10T19:29:43;16.20;99.90
17172;DHT22;8701;50.150;8.756;2023-05-10T19:33:46;16.20;99.90
17172;DHT22;8701;50.150;8.756;2023-05-10T19:37:49;16.10;99.90
17172;DHT22;8701;50.150;8.756;2023-05-10T19:41:51;16.10;99.90
17172;DHT22;8701;50.150;8.756;2023-05-10T19:45:53;16.00;99.90
17172;DHT22;8701;50.150;8.756;2023-05-10T19:49:57;16.00;99.90
17172;DHT22;8701;50.150;8.756;2023-05-10T19:53:59;15.90;99.90
17172;DHT22;8701;50.150;8.756;2023-05-10T19:58:02;15.90;99.90
17172;DHT22;8701;50.150;8.756;2023-05-10T20:02:05;15.80;99.90
17172;DHT22;8701;50.150;8.756;2023-05-10T20:06:09;15.70;99.90
17172;DHT22;8701;50.150;8.756;2023-05-10T20:10:11;15.60;99.90
17172;DHT22;8701;50.150;8.756;2023-05-10T20:14:14;15.60;99.90
17172;DHT22;8701;50.150;8.756;2023-05-10T20:18:16;15.70;99.90
17172;DHT22;8701;50.150;8.756;2023-05-10T20:22:20;15.70;99.90
17172;DHT22;8701;50.150;8.756;2023-05-10T20:26:22;15.70;99.90
17172;DHT22;8701;50.150;8.756;2023-05-10T20:30:24;15.60;99.90
17172;DHT22;8701;50.150;8.756;2023-05-10T20:34:27;15.60;99.90
17172;DHT22;8701;50.150;8.756;2023-05-10T20:38:30;15.50;99.90
17172;DHT22;8701;50.150;8.756;2023-05-10T20:42:33;15.50;99.90
17172;DHT22;8701;50.150;8.756;2023-05-10T20:46:35;15.40;99.90
17172;DHT22;8701;50.150;8.756;2023-05-10T20:50:37;15.40;99.90
17172;DHT22;8701;50.150;8.756;2023-05-10T20:54:41;15.40;99.90
17172;DHT22;8701;50.150;8.756;2023-05-10T20:58:43;15.40;99.90
17172;DHT22;8701;50.150;8.756;2023-05-10T21:02:45;15.30;99.90
17172;DHT22;8701;50.150;8.756;2023-05-10T21:06:48;15.30;99.90
17172;DHT22;8701;50.150;8.756;2023-05-10T21:10:52;15.30;99.90
17172;DHT22;8701;50.150;8.756;2023-05-10T21:14:55;15.30;99.90
17172;DHT22;8701;50.150;8.756;2023-05-10T21:18:57;15.30;99.90
17172;DHT22;8701;50.150;8.756;2023-05-10T21:22:59;15.20;99.90
17172;DHT22;8701;50.150;8.756;2023-05-10T21:27:03;15.20;99.90
17172;DHT22;8701;50.150;8.756;2023-05-10T21:31:07;15.20;99.90
17172;DHT22;8701;50.150;8.756;2023-05-10T21:35:09;15.10;99.90
17172;DHT22;8701;50.150;8.756;2023-05-10T21:39:11;15.00;99.90
17172;DHT22;8701;50.150;8.756;2023-05-10T21:43:15;15.00;99.90
17172;DHT22;8701;50.150;8.756;2023-05-10T21:47:17;14.90;99.90
17172;DHT22;8701;50.150;8.756;2023-05-10T21:51:19;14.90;99.90
17172;DHT22;8701;50.150;8.756;2023-05-10T21:55:22;14.90;99.90
17172;DHT22;8701;50.150;8.756;2023-05-10T21:59:26;14.80;99.90
17172;DHT22;8701;50.150;8.756;2023-05-10T22:03:28;14.80;99.90
17172;DHT22;8701;50.150;8.756;2023-05-10T22:07:31;14.80;99.90
17172;DHT22;8701;50.150;8.756;2023-05-10T22:11:33;14.70;99.90
17172;DHT22;8701;50.150;8.756;2023-05-10T22:15:37;14.60;99.90
17172;DHT22;8701;50.150;8.756;2023-05-10T22:19:39;14.60;99.90
17172;DHT22;8701;50.150;8.756;2023-05-10T22:23:41;14.60;99.90
17172;DHT22;8701;50.150;8.756;2023-05-10T22:27:43;14.50;99.90
17172;DHT22;8701;50.150;8.756;2023-05-10T22:31:47;14.50;99.90
17172;DHT22;8701;50.150;8.756;2023-05-10T22:35:49;14.40;99.90
17172;DHT22;8701;50.150;8.756;2023-05-10T22:39:52;14.30;99.90
17172;DHT22;8701;50.150;8.756;2023-05-10T22:43:54;14.20;99.90
17172;DHT22;8701;50.150;8.756;2023-05-10T22:47:58;14.20;99.90
17172;DHT22;8701;50.150;8.756;2023-05-10T22:52:00;14.20;99.90
17172;DHT22;8701;50.150;8.756;2023-05-10T22:56:02;14.20;99.90
17172;DHT22;8701;50.150;8.756;2023-05-10T23:00:06;14.10;99.90
17172;DHT22;8701;50.150;8.756;2023-05-10T23:04:09;14.00;99.90
17172;DHT22;8701;50.150;8.756;2023-05-10T23:08:12;14.00;99.90
17172;DHT22;8701;50.150;8.756;2023-05-10T23:12:14;14.00;99.90
17172;DHT22;8701;50.150;8.756;2023-05-10T23:16:16;13.90;99.90
17172;DHT22;8701;50.150;8.756;2023-05-10T23:20:20;13.90;99.90
17172;DHT22;8701;50.150;8.756;2023-05-10T23:24:22;13.90;99.90
17172;DHT22;8701;50.150;8.756;2023-05-10T23:28:24;13.90;99.90
17172;DHT22;8701;50.150;8.756;2023-05-10T23:32:27;13.80;99.90
17172;DHT22;8701;50.150;8.756;2023-05-10T23:36:30;13.80;99.90
17172;DHT22;8701;50.150;8.756;2023-05-10T23:40:34;13.80;99.90
17172;DHT22;8701;50.150;8.756;2023-05-10T23:44:36;13.80;99.90
17172;DHT22;8701;50.150;8.756;2023-05-10T23:48:38;13.70;99.90
17172;DHT22;8701;50.150;8.756;2023-05-10T23:52:42;13.70;99.90
17172;DHT22;8701;50.150;8.756;2023-05-10T23:56:44;13.60;99.90
